Latest Weather Observations for Moorabbin Airport

IDV60901

Issued at 10:11 am EDT Wednesday 22 February 2017 (issued every 10 minutes, with the page automatically refreshed every 10 minutes)

About weather observations | Map of Melbourne area stations | Latest observations for Melbourne area | Other Formats
Station Details ID: 086077 Name: MOORABBIN AIRPORT Lat: -37.98 Lon: 145.10 Height: 12.1 m
Data from the previous 72 hours. | See also: Recent months at Moorabbin Airport
Date/Time
EDT
Temp
°C
App
Temp
°C
Dew
Point
°C
Rel
Hum
%
Delta-T
°C
Wind Press
QNH
hPa
Press
MSL
hPa
Rain since
9am
mm
Dir  Spd
km/h
Gust
km/h
Spd
kts
Gust
kts
22/10:00am 23.4 19.8 8.3 38 8.0 N 17 22 9 12 1015.0 1015.0 0.0
22/09:30am 21.1 19.3 9.4 47 6.2 NNE 9 13 5 7 1015.3 1015.3 0.0
22/09:00am 17.9 19.4 14.6 81 1.9 CALM 0 0 0 0 1015.5 1015.5 0.0
22/08:30am 14.8 15.8 13.2 90 0.9 CALM 0 0 0 0 1015.5 1015.5 0.0
22/08:00am 12.2 12.6 11.3 94 0.5 CALM 0 0 0 0 1015.6 1015.6 0.0
22/07:30am 11.1 11.2 10.0 93 0.6 CALM 0 0 0 0 1015.4 1015.4 0.0
22/07:00am 10.5 9.6 9.3 92 0.6 E 4 7 2 4 1015.4 1015.4 0.0
22/06:30am 11.0 9.7 9.9 93 0.6 ESE 7 7 4 4 1015.3 1015.3 0.0
22/06:00am 10.4 8.9 9.2 92 0.6 ESE 7 9 4 5 1015.0 1015.0 0.0
22/05:30am 10.7 10.6 9.5 92 0.6 CALM 0 0 0 0 1015.2 1015.2 0.0
22/05:00am 10.8 10.7 9.6 92 0.6 CALM 0 0 0 0 1015.3 1015.3 0.0
22/04:30am 10.8 10.7 9.4 91 0.7 CALM 0 0 0 0 1015.6 1015.6 0.0
22/04:27am 11.2 11.2 9.8 91 0.7 CALM 0 0 0 0 1015.7 1015.7 0.0
22/04:08am 11.6 11.7 10.2 91 0.7 CALM 0 0 0 0 1015.9 1015.9 0.0
22/04:00am 11.6 11.7 10.2 91 0.7 CALM 0 0 0 0 1016.0 1016.0 0.0
22/03:30am 11.6 11.6 9.9 89 0.9 CALM 0 0 0 0 1016.2 1016.2 0.0
22/03:00am 12.2 12.3 10.3 88 1.0 CALM 0 0 0 0 1016.3 1016.3 0.0
22/02:30am 12.5 12.6 10.0 85 1.3 CALM 0 0 0 0 1016.6 1016.6 0.0
22/02:00am 12.8 12.1 10.0 83 1.4 ESE 4 6 2 3 1017.0 1017.0 0.0
22/01:30am 13.5 12.3 10.3 81 1.7 ENE 7 7 4 4 1017.2 1017.2 0.0
22/01:00am 14.2 13.3 10.6 79 1.9 N 6 7 3 4 1017.6 1017.6 0.0
22/12:30am 14.4 13.0 10.8 79 1.9 E 9 11 5 6 1017.8 1017.8 0.0
22/12:00am 14.5 12.7 10.7 78 2.0 ESE 11 17 6 9 1018.0 1018.0 0.0
 
Date/Time
EDT
Temp
°C
App
Temp
°C
Dew
Point
°C
Rel
Hum
%
Delta-T
°C
Wind Press
QNH
hPa
Press
MSL
hPa
Rain since
9am
mm
Dir  Spd
km/h
Gust
km/h
Spd
kts
Gust
kts
21/11:30pm 15.1 12.5 10.7 75 2.3 ESE 15 20 8 11 1018.1 1018.1 0.0
21/11:00pm 15.8 13.2 10.8 72 2.7 ESE 15 20 8 11 1018.3 1018.3 0.0
21/10:30pm 16.5 13.0 11.0 70 2.9 ESE 20 28 11 15 1018.5 1018.5 0.0
21/10:00pm 17.0 13.6 11.3 69 3.1 ESE 20 30 11 16 1018.5 1018.5 0.0
21/09:30pm 17.2 14.4 11.2 68 3.2 ESE 17 26 9 14 1018.4 1018.4 0.0
21/09:00pm 17.6 14.4 11.2 66 3.5 ESE 19 22 10 12 1018.1 1018.1 0.0
21/08:30pm 17.7 14.7 10.8 64 3.7 SE 17 22 9 12 1017.8 1017.8 0.0
21/08:00pm 19.2 15.8 11.3 60 4.3 SE 20 26 11 14 1017.6 1017.6 0.0
21/07:30pm 20.0 16.3 11.5 58 4.7 SE 22 30 12 16 1017.5 1017.5 0.0
21/07:00pm 20.8 16.8 11.7 56 5.1 SE 24 30 13 16 1017.7 1017.7 0.0
21/06:30pm 22.1 18.7 11.2 50 6.0 SSE 20 28 11 15 1017.5 1017.5 0.0
21/06:00pm 21.8 19.0 11.2 51 5.9 S 17 22 9 12 1017.7 1017.7 0.0
21/05:30pm 21.9 19.3 10.7 49 6.2 S 15 20 8 11 1017.9 1017.9 0.0
21/05:00pm 21.2 18.5 10.4 50 5.9 S 15 20 8 11 1018.3 1018.3 0.0
21/04:30pm 21.0 17.9 10.2 50 5.9 SSW 17 24 9 13 1018.8 1018.8 0.0
21/04:00pm 20.5 16.9 9.7 50 5.8 SSW 19 28 10 15 1019.0 1019.0 0.0
21/03:30pm 20.5 17.7 11.2 55 5.1 SSW 17 24 9 13 1019.5 1019.5 0.0
21/03:00pm 20.3 17.4 9.8 51 5.6 SSW 15 20 8 11 1019.8 1019.8 0.0
21/02:30pm 19.9 17.2 10.3 54 5.2 SSW 15 20 8 11 1020.1 1020.1 0.0
21/02:00pm 20.0 17.2 11.5 58 4.7 SW 17 28 9 15 1020.4 1020.4 0.0
21/01:30pm 18.8 16.8 10.1 57 4.6 SW 11 17 6 9 1020.6 1020.6 0.0
21/01:00pm 19.4 17.2 10.7 57 4.7 SW 13 19 7 10 1021.2 1021.2 0.0
21/12:30pm 18.9 16.1 11.2 61 4.2 SW 17 20 9 11 1021.4 1021.4 0.0
21/12:00pm 17.6 16.3 10.0 61 4.0 W 7 17 4 9 1021.5 1021.5 0.0
21/11:30am 18.2 16.8 11.0 63 3.9 SW 9 15 5 8 1021.5 1021.5 0.0
21/11:00am 17.7 16.8 10.6 63 3.8 WSW 6 9 3 5 1021.7 1021.7 0.0
21/10:30am 17.2 16.0 10.3 64 3.7 NNW 7 15 4 8 1021.9 1021.9 0.0
21/10:00am 16.2 14.6 10.1 67 3.2 NW 9 15 5 8 1021.9 1021.9 0.0
21/09:30am 15.2 13.1 9.6 69 2.9 NNW 11 13 6 7 1021.6 1021.6 0.0
21/09:00am 13.9 11.6 9.1 73 2.4 NNW 11 17 6 9 1021.4 1021.4 0.2
21/08:30am 12.9 10.2 8.8 76 2.1 NNW 13 17 7 9 1021.2 1021.2 0.2
21/08:00am 11.7 9.0 8.9 83 1.4 N 13 19 7 10 1020.9 1020.9 0.2
21/07:30am 10.2 8.1 8.1 87 1.0 N 9 13 5 7 1020.5 1020.5 0.2
21/07:00am 9.8 7.5 7.6 86 1.0 N 9 11 5 6 1020.1 1020.1 0.2
21/06:30am 9.6 6.5 7.2 85 1.1 N 13 13 7 7 1019.5 1019.5 0.2
21/06:00am 9.7 6.9 7.0 83 1.3 N 11 13 6 7 1019.3 1019.3 0.2
21/05:30am 10.8 8.6 8.0 83 1.4 NNW 9 11 5 6 1019.1 1019.1 0.2
21/05:00am 10.7 8.5 7.9 83 1.4 NNW 9 13 5 7 1019.1 1019.1 0.2
21/04:30am 11.2 9.1 8.4 83 1.4 NNW 9 13 5 7 1019.0 1019.0 0.2
21/04:00am 12.0 10.1 9.0 82 1.5 NNW 9 11 5 6 1018.7 1018.7 0.2
21/03:30am 12.3 10.4 9.1 81 1.6 NW 9 13 5 7 1018.7 1018.7 0.2
21/03:00am 12.5 10.2 9.0 79 1.8 NW 11 15 6 8 1018.6 1018.6 0.2
21/02:30am 13.1 10.5 9.4 78 1.9 NNW 13 17 7 9 1018.4 1018.4 0.2
21/02:00am 13.2 11.6 8.1 71 2.5 NW 6 7 3 4 1018.5 1018.5 0.2
21/01:30am 14.0 12.3 8.4 69 2.8 NW 7 11 4 6 1018.6 1018.6 0.2
21/01:00am 14.7 12.7 8.6 67 3.1 W 9 13 5 7 1018.6 1018.6 0.2
21/12:30am 15.3 12.9 8.8 65 3.3 W 11 15 6 8 1018.7 1018.7 0.2
21/12:00am 15.7 13.4 8.9 64 3.5 W 11 17 6 9 1018.6 1018.6 0.2
 
Date/Time
EDT
Temp
°C
App
Temp
°C
Dew
Point
°C
Rel
Hum
%
Delta-T
°C
Wind Press
QNH
hPa
Press
MSL
hPa
Rain since
9am
mm
Dir  Spd
km/h
Gust
km/h
Spd
kts
Gust
kts
20/11:30pm 16.2 12.8 9.2 63 3.6 WSW 17 28 9 15 1018.5 1018.5 0.2
20/11:00pm 16.4 13.0 9.3 63 3.7 WSW 17 24 9 13 1018.3 1018.3 0.2
20/10:30pm 16.3 12.8 8.8 61 3.8 WSW 17 28 9 15 1018.2 1018.2 0.2
20/10:00pm 16.3 12.0 9.5 64 3.5 SW 22 32 12 17 1017.9 1017.9 0.2
20/09:30pm 16.4 12.7 10.0 66 3.4 SW 20 32 11 17 1017.6 1017.6 0.2
20/09:00pm 16.2 12.0 9.6 65 3.4 SW 22 32 12 17 1017.1 1017.1 0.2
20/08:30pm 16.5 11.2 9.9 65 3.5 SW 28 37 15 20 1016.5 1016.5 0.2
20/08:18pm 16.6 11.3 10.0 65 3.5 SW 28 46 15 25 1016.4 1016.4 0.2
20/08:00pm 16.7 12.2 10.1 65 3.5 SSW 24 35 13 19 1016.2 1016.2 0.2
20/07:30pm 17.0 11.3 9.7 62 3.8 SSW 30 41 16 22 1015.7 1015.7 0.2
20/07:00pm 17.6 12.3 9.8 60 4.1 SSW 28 44 15 24 1015.4 1015.4 0.2
20/06:30pm 17.8 11.7 9.7 59 4.3 SSW 32 44 17 24 1015.1 1015.1 0.2
20/06:00pm 18.2 12.6 10.3 60 4.2 SSW 30 46 16 25 1014.8 1014.8 0.2
20/05:30pm 18.3 12.8 10.4 60 4.2 SSW 30 44 16 24 1014.5 1014.5 0.2
20/05:00pm 18.8 12.7 9.8 56 4.8 SSW 32 43 17 23 1014.1 1014.1 0.2
20/04:30pm 18.3 12.4 10.4 60 4.2 SW 32 44 17 24 1013.9 1013.9 0.2
20/04:00pm 18.8 13.1 11.1 61 4.2 SW 32 43 17 23 1013.7 1013.7 0.2
20/03:30pm 18.4 13.2 10.3 59 4.3 SW 28 39 15 21 1013.5 1013.5 0.2
20/03:00pm 18.8 13.7 10.6 59 4.4 SW 28 41 15 22 1013.5 1013.5 0.2
20/02:30pm 18.6 13.1 10.7 60 4.3 SW 30 41 16 22 1013.5 1013.5 0.2
20/02:18pm 17.5 12.2 9.9 61 4.0 SW 28 46 15 25 1013.5 1013.5 0.2
20/02:00pm 17.8 12.2 10.2 61 4.0 SW 30 39 16 21 1013.5 1013.5 0.2
20/01:30pm 16.9 12.0 9.8 63 3.7 SW 26 39 14 21 1013.5 1013.5 0.2
20/01:00pm 17.3 13.9 11.3 68 3.2 W 20 35 11 19 1013.4 1013.4 0.2
20/12:30pm 15.2 11.2 10.6 74 2.4 WSW 22 41 12 22 1013.4 1013.4 0.2
20/12:00pm 16.2 12.2 10.3 68 3.1 W 22 35 12 19 1013.2 1013.2 0.2
20/11:30am 15.0 10.2 10.4 74 2.4 W 26 39 14 21 1013.2 1013.2 0.2
20/11:00am 15.5 11.5 10.5 72 2.6 W 22 35 12 19 1013.2 1013.2 0.0
20/10:30am 14.9 10.2 10.7 76 2.2 W 26 35 14 19 1013.2 1013.2 0.0
20/10:00am 14.6 9.8 10.4 76 2.2 W 26 41 14 22 1013.0 1013.0 0.0
20/09:30am 14.3 10.4 10.7 79 1.9 W 22 33 12 18 1012.6 1012.6 0.0
20/09:00am 13.7 10.2 10.3 80 1.8 W 19 32 10 17 1012.2 1012.2 18.0
20/08:30am 13.4 9.4 10.4 82 1.6 W 22 35 12 19 1011.9 1011.9 17.8
20/08:00am 13.0 9.1 10.7 86 1.2 WSW 22 41 12 22 1011.6 1011.6 17.8
20/07:57am 13.0 8.7 10.7 86 1.2 WSW 24 41 13 22 1011.6 1011.6 17.8
20/07:45am 12.9 8.9 10.4 85 1.3 W 22 35 12 19 1011.4 1011.4 17.6
20/07:30am 12.8 9.1 10.3 85 1.3 W 20 30 11 16 1011.0 1011.0 16.8
20/07:00am 12.9 8.9 10.3 84 1.3 W 22 35 12 19 1010.8 1010.8 16.8
20/06:30am 12.9 8.8 10.1 83 1.4 WNW 22 35 12 19 1010.3 1010.3 16.4
20/06:00am 13.0 8.9 10.2 83 1.4 W 22 39 12 21 1010.2 1010.2 16.4
20/05:30am 12.7 8.2 10.2 85 1.3 W 24 39 13 21 1010.1 1010.1 15.8
20/05:00am 12.3 8.1 9.9 85 1.2 WNW 22 37 12 20 1009.8 1009.8 15.8
20/04:30am 12.2 7.7 10.1 87 1.1 W 24 33 13 18 1009.7 1009.7 15.8
20/04:00am 12.1 8.5 9.8 86 1.2 WNW 19 32 10 17 1009.8 1009.8 15.4
20/03:30am 11.8 8.5 9.5 86 1.2 WNW 17 24 9 13 1009.8 1009.8 14.8
20/03:00am 11.9 8.0 9.5 85 1.2 WNW 20 30 11 16 1009.9 1009.9 13.4
20/02:30am 12.0 8.7 9.7 86 1.2 WNW 17 24 9 13 1009.6 1009.6 12.6
20/02:14am 11.6 8.6 9.3 86 1.2 WNW 15 20 8 11 1009.8 1009.8 12.6
20/02:00am 11.6 7.2 9.0 84 1.3 W 22 33 12 18 1010.0 1010.0 12.2
20/01:49am 12.1 8.2 9.3 83 1.4 W 20 33 11 18 1010.1 1010.1 10.8
20/01:30am 12.4 8.1 9.4 82 1.5 W 22 35 12 19 1010.0 1010.0 9.8
20/01:00am 12.2 7.9 9.4 83 1.4 W 22 33 12 18 1009.9 1009.9 9.6
20/12:30am 12.1 7.8 9.5 84 1.3 WNW 22 32 12 17 1010.1 1010.1 9.6
20/12:29am 12.0 7.7 9.4 84 1.3 WNW 22 32 12 17 1010.1 1010.1 9.4
20/12:08am 12.2 8.8 9.2 82 1.5 WNW 17 26 9 14 1010.1 1010.1 7.6
20/12:00am 12.5 9.1 9.1 80 1.7 WNW 17 26 9 14 1010.1 1010.1 6.6
 
Date/Time
EDT
Temp
°C
App
Temp
°C
Dew
Point
°C
Rel
Hum
%
Delta-T
°C
Wind Press
QNH
hPa
Press
MSL
hPa
Rain since
9am
mm
Dir  Spd
km/h
Gust
km/h
Spd
kts
Gust
kts
19/11:30pm 12.5 8.2 8.0 74 2.2 WSW 20 37 11 20 1010.1 1010.1 6.2
19/11:00pm 13.0 9.2 8.9 76 2.1 W 19 37 10 20 1010.4 1010.4 5.6
19/10:30pm 13.0 9.5 7.2 68 2.8 W 15 22 8 12 1010.1 1010.1 5.4
19/10:00pm 12.9 9.6 8.2 73 2.3 WSW 15 28 8 15 1010.1 1010.1 5.4
19/09:33pm 12.7 8.3 7.4 70 2.6 W 20 46 11 25 1009.9 1009.9 5.4
19/09:30pm 12.9 9.6 8.2 73 2.3 WNW 15 26 8 14 1010.0 1010.0 5.4
19/09:00pm 12.2 9.3 8.3 77 1.9 WNW 13 20 7 11 1009.9 1009.9 5.4
19/08:30pm 12.4 9.5 8.3 76 2.0 WNW 13 19 7 10 1009.4 1009.4 5.4
19/08:00pm 12.4 9.7 8.9 79 1.8 WNW 13 22 7 12 1009.2 1009.2 5.4
19/07:34pm 11.7 8.6 8.9 83 1.4 W 15 24 8 13 1008.9 1008.9 5.4
19/07:30pm 11.3 8.0 8.2 81 1.5 WSW 15 24 8 13 1008.9 1008.9 5.4
19/07:13pm 10.6 3.6 6.0 73 2.1 WSW 32 52 17 28 1009.3 1009.3 4.2
19/07:10pm 11.7 5.3 7.0 73 2.2 WSW 30 52 16 28 1009.1 1009.1 3.6
19/07:00pm 13.9 9.7 8.3 69 2.8 WSW 20 35 11 19 1008.5 1008.5 2.6
19/06:30pm 13.5 7.9 7.3 66 3.0 SW 26 43 14 23 1008.4 1008.4 2.6
19/06:00pm 14.1 8.6 7.6 65 3.2 W 26 43 14 23 1008.4 1008.4 2.4
19/05:51pm 14.2 7.3 7.3 63 3.4 WSW 33 52 18 28 1008.2 1008.2 2.4
19/05:43pm 14.7 8.8 7.5 62 3.6 WSW 28 52 15 28 1008.0 1008.0 2.4
19/05:30pm 15.2 11.0 8.2 63 3.5 WNW 20 28 11 15 1007.5 1007.5 2.4
19/05:00pm 16.1 13.8 10.4 69 3.0 WNW 13 22 7 12 1007.6 1007.6 2.4
19/04:30pm 14.0 9.4 8.2 68 2.9 WNW 22 33 12 18 1008.0 1008.0 2.2
19/04:00pm 14.9 12.2 10.3 74 2.4 NNW 15 20 8 11 1007.8 1007.8 2.0
19/03:41pm 13.1 10.3 8.4 73 2.3 NNW 13 19 7 10 1007.9 1007.9 2.0
19/03:30pm 12.4 7.0 6.5 67 2.8 WNW 24 52 13 28 1008.0 1008.0 2.0
19/03:27pm 12.3 6.2 6.6 68 2.7 WNW 28 52 15 28 1008.3 1008.3 2.0
19/03:13pm 13.9 9.1 5.8 58 3.8 W 20 54 11 29 1008.5 1008.5 1.2
19/03:00pm 16.0 11.7 7.0 55 4.5 WNW 19 28 10 15 1008.0 1008.0 1.2
19/02:30pm 16.4 11.7 7.9 57 4.3 WNW 22 32 12 17 1008.2 1008.2 1.2
19/02:00pm 14.9 11.5 9.1 68 3.0 WNW 17 28 9 15 1008.5 1008.5 1.2
19/01:30pm 14.2 9.7 8.6 69 2.8 WNW 22 32 12 17 1008.7 1008.7 1.2
19/01:00pm 14.0 10.0 9.0 72 2.5 WNW 20 28 11 15 1008.9 1008.9 1.0
19/12:30pm 15.8 11.9 9.5 66 3.3 WNW 20 30 11 16 1009.0 1009.0 0.8
19/12:00pm 14.8 10.0 9.0 68 3.0 WNW 24 35 13 19 1009.4 1009.4 0.8
19/11:30am 13.8 10.7 10.2 79 1.9 WNW 17 26 9 14 1009.8 1009.8 0.8
19/11:00am 14.8 10.8 9.0 68 3.0 WNW 20 37 11 20 1009.7 1009.7 0.4
19/10:30am 13.1 8.7 9.0 76 2.1 NW 22 35 12 19 1010.0 1010.0 0.4

Latest Capital City Observations: Canberra | Sydney | Melbourne | Brisbane | Adelaide | Perth | Hobart | Darwin

Other Formats:

Comma delimited format used in spreadsheet applications
http://www.bom.gov.au/fwo/IDV60901/IDV60901.94870.axf

JavaScript Object Notation format (JSON) in row-major order
http://www.bom.gov.au/fwo/IDV60901/IDV60901.94870.json